sensor_id;sensor_type;location;lat;lon;timestamp;pressure;altitude;pressure_sealevel;temperature;humidity
19128;BME280;9696;53.686;10.094;2023-02-19T00:00:11;101297.94;;;4.20;100.00
19128;BME280;9696;53.686;10.094;2023-02-19T00:02:43;101284.56;;;4.11;100.00
19128;BME280;9696;53.686;10.094;2023-02-19T00:05:15;101286.53;;;4.23;100.00
19128;BME280;9696;53.686;10.094;2023-02-19T00:07:44;101290.47;;;4.14;100.00
19128;BME280;9696;53.686;10.094;2023-02-19T00:10:13;101289.13;;;4.23;100.00
19128;BME280;9696;53.686;10.094;2023-02-19T00:12:42;101296.13;;;4.22;100.00
19128;BME280;9696;53.686;10.094;2023-02-19T00:15:11;101289.41;;;4.18;100.00
19128;BME280;9696;53.686;10.094;2023-02-19T00:17:40;101293.34;;;4.25;100.00
19128;BME280;9696;53.686;10.094;2023-02-19T00:20:11;101290.91;;;4.22;100.00
19128;BME280;9696;53.686;10.094;2023-02-19T00:22:40;101288.00;;;4.28;100.00
19128;BME280;9696;53.686;10.094;2023-02-19T00:25:10;101284.38;;;4.31;100.00
19128;BME280;9696;53.686;10.094;2023-02-19T00:27:39;101280.53;;;4.22;100.00
19128;BME280;9696;53.686;10.094;2023-02-19T00:30:09;101281.28;;;4.24;100.00
19128;BME280;9696;53.686;10.094;2023-02-19T00:32:39;101285.72;;;4.22;100.00
19128;BME280;9696;53.686;10.094;2023-02-19T00:35:12;101279.47;;;4.26;100.00
19128;BME280;9696;53.686;10.094;2023-02-19T00:37:41;101281.34;;;4.23;100.00
19128;BME280;9696;53.686;10.094;2023-02-19T00:40:11;101283.59;;;4.13;100.00
19128;BME280;9696;53.686;10.094;2023-02-19T00:42:40;101283.72;;;4.27;100.00
19128;BME280;9696;53.686;10.094;2023-02-19T00:45:09;101286.19;;;4.31;100.00
19128;BME280;9696;53.686;10.094;2023-02-19T00:47:38;101283.81;;;4.26;100.00
19128;BME280;9696;53.686;10.094;2023-02-19T00:50:07;101291.50;;;4.27;100.00
19128;BME280;9696;53.686;10.094;2023-02-19T00:52:38;101297.63;;;4.26;100.00
19128;BME280;9696;53.686;10.094;2023-02-19T00:55:07;101291.94;;;4.36;100.00
19128;BME280;9696;53.686;10.094;2023-02-19T00:57:37;101302.66;;;4.30;100.00
19128;BME280;9696;53.686;10.094;2023-02-19T01:00:07;101300.34;;;4.41;100.00
19128;BME280;9696;53.686;10.094;2023-02-19T01:02:36;101300.28;;;4.42;100.00
19128;BME280;9696;53.686;10.094;2023-02-19T01:05:06;101301.03;;;4.44;100.00
19128;BME280;9696;53.686;10.094;2023-02-19T01:07:35;101304.75;;;4.39;100.00
19128;BME280;9696;53.686;10.094;2023-02-19T01:10:07;101309.22;;;4.37;100.00
19128;BME280;9696;53.686;10.094;2023-02-19T01:12:36;101311.75;;;4.38;100.00
19128;BME280;9696;53.686;10.094;2023-02-19T01:15:06;101307.69;;;4.33;100.00
19128;BME280;9696;53.686;10.094;2023-02-19T01:17:35;101309.59;;;4.29;100.00
19128;BME280;9696;53.686;10.094;2023-02-19T01:20:05;101313.06;;;4.30;100.00
19128;BME280;9696;53.686;10.094;2023-02-19T01:22:34;101308.03;;;4.26;100.00
19128;BME280;9696;53.686;10.094;2023-02-19T01:25:03;101309.78;;;4.26;100.00
19128;BME280;9696;53.686;10.094;2023-02-19T01:27:34;101316.38;;;4.32;100.00
19128;BME280;9696;53.686;10.094;2023-02-19T01:30:03;101316.16;;;4.36;100.00
19128;BME280;9696;53.686;10.094;2023-02-19T01:32:33;101320.06;;;4.27;100.00
19128;BME280;9696;53.686;10.094;2023-02-19T01:35:02;101321.59;;;4.32;100.00
19128;BME280;9696;53.686;10.094;2023-02-19T01:37:31;101321.41;;;4.35;100.00
19128;BME280;9696;53.686;10.094;2023-02-19T01:40:01;101324.28;;;4.30;100.00
19128;BME280;9696;53.686;10.094;2023-02-19T01:42:30;101317.63;;;4.24;100.00
19128;BME280;9696;53.686;10.094;2023-02-19T01:45:26;101314.41;;;4.19;100.00
19128;BME280;9696;53.686;10.094;2023-02-19T01:48:06;101324.22;;;3.97;100.00
19128;BME280;9696;53.686;10.094;2023-02-19T01:50:39;101317.88;;;4.03;100.00
19128;BME280;9696;53.686;10.094;2023-02-19T01:53:12;101319.53;;;4.04;100.00
19128;BME280;9696;53.686;10.094;2023-02-19T01:55:45;101318.84;;;4.00;100.00
19128;BME280;9696;53.686;10.094;2023-02-19T01:58:15;101314.56;;;3.99;100.00
19128;BME280;9696;53.686;10.094;2023-02-19T02:00:45;101311.97;;;3.99;100.00
19128;BME280;9696;53.686;10.094;2023-02-19T02:03:15;101317.88;;;4.03;100.00
19128;BME280;9696;53.686;10.094;2023-02-19T02:05:49;101314.44;;;3.85;100.00
19128;BME280;9696;53.686;10.094;2023-02-19T02:08:23;101315.34;;;4.01;100.00
19128;BME280;9696;53.686;10.094;2023-02-19T02:11:25;101314.13;;;3.91;100.00
19128;BME280;9696;53.686;10.094;2023-02-19T02:13:54;101306.78;;;3.99;100.00
19128;BME280;9696;53.686;10.094;2023-02-19T02:16:32;101307.09;;;3.93;100.00
19128;BME280;9696;53.686;10.094;2023-02-19T02:19:15;101312.63;;;3.87;100.00
19128;BME280;9696;53.686;10.094;2023-02-19T02:22:00;101307.72;;;3.81;100.00
19128;BME280;9696;53.686;10.094;2023-02-19T02:25:01;101310.59;;;3.92;100.00
19128;BME280;9696;53.686;10.094;2023-02-19T02:27:47;101310.59;;;3.92;100.00
19128;BME280;9696;53.686;10.094;2023-02-19T02:30:36;101314.28;;;3.88;100.00
19128;BME280;9696;53.686;10.094;2023-02-19T02:33:16;101315.28;;;3.86;100.00
19128;BME280;9696;53.686;10.094;2023-02-19T02:35:51;101319.00;;;3.97;100.00
19128;BME280;9696;53.686;10.094;2023-02-19T02:38:25;101313.38;;;3.89;100.00
19128;BME280;9696;53.686;10.094;2023-02-19T02:40:57;101321.09;;;3.91;100.00
19128;BME280;9696;53.686;10.094;2023-02-19T02:43:26;101314.00;;;3.94;100.00
19128;BME280;9696;53.686;10.094;2023-02-19T02:45:57;101317.56;;;3.92;100.00
19128;BME280;9696;53.686;10.094;2023-02-19T02:48:34;101316.88;;;3.88;100.00
19128;BME280;9696;53.686;10.094;2023-02-19T02:51:13;101315.44;;;3.83;100.00
19128;BME280;9696;53.686;10.094;2023-02-19T02:53:53;101298.94;;;3.84;100.00
19128;BME280;9696;53.686;10.094;2023-02-19T02:56:43;101312.50;;;3.71;100.00
19128;BME280;9696;53.686;10.094;2023-02-19T02:59:14;101301.16;;;3.74;100.00
19128;BME280;9696;53.686;10.094;2023-02-19T03:01:50;101300.38;;;3.72;100.00
19128;BME280;9696;53.686;10.094;2023-02-19T03:04:46;101305.94;;;3.64;100.00
19128;BME280;9696;53.686;10.094;2023-02-19T03:07:38;101302.22;;;3.70;100.00
19128;BME280;9696;53.686;10.094;2023-02-19T03:10:12;101304.81;;;3.70;100.00
19128;BME280;9696;53.686;10.094;2023-02-19T03:12:44;101301.38;;;3.69;100.00
19128;BME280;9696;53.686;10.094;2023-02-19T03:15:35;101309.69;;;3.59;100.00
19128;BME280;9696;53.686;10.094;2023-02-19T03:18:27;101309.22;;;3.68;100.00
19128;BME280;9696;53.686;10.094;2023-02-19T03:21:19;101312.34;;;3.57;100.00
19128;BME280;9696;53.686;10.094;2023-02-19T03:23:50;101319.97;;;3.60;100.00
19128;BME280;9696;53.686;10.094;2023-02-19T03:26:38;101322.44;;;3.63;100.00
19128;BME280;9696;53.686;10.094;2023-02-19T03:29:11;101322.66;;;3.59;100.00
19128;BME280;9696;53.686;10.094;2023-02-19T03:32:05;101326.31;;;3.55;100.00
19128;BME280;9696;53.686;10.094;2023-02-19T03:34:40;101323.84;;;3.52;100.00
19128;BME280;9696;53.686;10.094;2023-02-19T03:37:15;101328.06;;;3.54;100.00
19128;BME280;9696;53.686;10.094;2023-02-19T03:39:46;101333.88;;;3.59;100.00
19128;BME280;9696;53.686;10.094;2023-02-19T03:42:23;101339.13;;;3.58;100.00
19128;BME280;9696;53.686;10.094;2023-02-19T03:45:05;101341.72;;;3.58;100.00
19128;BME280;9696;53.686;10.094;2023-02-19T03:47:43;101343.63;;;3.54;100.00
19128;BME280;9696;53.686;10.094;2023-02-19T03:50:18;101340.38;;;3.49;100.00
19128;BME280;9696;53.686;10.094;2023-02-19T03:52:57;101347.31;;;3.49;100.00
19128;BME280;9696;53.686;10.094;2023-02-19T03:55:35;101343.88;;;3.48;100.00
19128;BME280;9696;53.686;10.094;2023-02-19T03:58:13;101357.69;;;3.49;100.00
19128;BME280;9696;53.686;10.094;2023-02-19T04:00:50;101356.72;;;3.51;100.00
19128;BME280;9696;53.686;10.094;2023-02-19T04:03:26;101350.75;;;3.49;100.00
19128;BME280;9696;53.686;10.094;2023-02-19T04:06:00;101363.66;;;3.51;100.00
19128;BME280;9696;53.686;10.094;2023-02-19T04:08:33;101360.09;;;3.53;100.00
19128;BME280;9696;53.686;10.094;2023-02-19T04:11:05;101361.97;;;3.50;100.00
19128;BME280;9696;53.686;10.094;2023-02-19T04:13:42;101369.13;;;3.45;100.00
19128;BME280;9696;53.686;10.094;2023-02-19T04:16:16;101373.78;;;3.38;100.00
19128;BME280;9696;53.686;10.094;2023-02-19T04:18:49;101365.34;;;3.33;100.00
19128;BME280;9696;53.686;10.094;2023-02-19T04:21:22;101366.50;;;3.27;100.00
19128;BME280;9696;53.686;10.094;2023-02-19T04:23:52;101365.78;;;3.24;100.00
19128;BME280;9696;53.686;10.094;2023-02-19T04:26:22;101365.22;;;3.17;100.00
19128;BME280;9696;53.686;10.094;2023-02-19T04:28:51;101367.91;;;3.16;100.00
19128;BME280;9696;53.686;10.094;2023-02-19T04:31:22;101381.91;;;3.12;100.00
19128;BME280;9696;53.686;10.094;2023-02-19T04:33:51;101386.38;;;3.08;100.00
19128;BME280;9696;53.686;10.094;2023-02-19T04:36:22;101399.59;;;3.02;100.00
19128;BME280;9696;53.686;10.094;2023-02-19T04:38:51;101400.94;;;2.92;100.00
19128;BME280;9696;53.686;10.094;2023-02-19T04:41:20;101403.28;;;2.97;100.00
19128;BME280;9696;53.686;10.094;2023-02-19T04:43:49;101398.25;;;2.94;100.00
19128;BME280;9696;53.686;10.094;2023-02-19T04:46:18;101406.13;;;2.92;100.00
19128;BME280;9696;53.686;10.094;2023-02-19T04:48:47;101410.56;;;2.89;100.00
19128;BME280;9696;53.686;10.094;2023-02-19T04:51:17;101410.66;;;2.87;100.00
19128;BME280;9696;53.686;10.094;2023-02-19T04:53:47;101410.72;;;2.85;100.00
19128;BME280;9696;53.686;10.094;2023-02-19T04:56:17;101408.13;;;2.85;100.00
19128;BME280;9696;53.686;10.094;2023-02-19T04:58:46;101413.38;;;2.84;100.00
19128;BME280;9696;53.686;10.094;2023-02-19T05:01:15;101409.53;;;2.93;100.00
19128;BME280;9696;53.686;10.094;2023-02-19T05:03:44;101423.75;;;2.84;100.00
19128;BME280;9696;53.686;10.094;2023-02-19T05:06:13;101422.97;;;2.82;100.00
19128;BME280;9696;53.686;10.094;2023-02-19T05:08:43;101425.50;;;2.83;100.00
19128;BME280;9696;53.686;10.094;2023-02-19T05:11:13;101438.56;;;2.80;100.00
19128;BME280;9696;53.686;10.094;2023-02-19T05:13:42;101430.03;;;2.78;100.00
19128;BME280;9696;53.686;10.094;2023-02-19T05:16:13;101427.28;;;2.81;100.00
19128;BME280;9696;53.686;10.094;2023-02-19T05:18:44;101429.44;;;2.72;100.00
19128;BME280;9696;53.686;10.094;2023-02-19T05:21:14;101437.09;;;2.75;100.00
19128;BME280;9696;53.686;10.094;2023-02-19T05:23:43;101443.31;;;2.71;100.00
19128;BME280;9696;53.686;10.094;2023-02-19T05:26:17;101442.41;;;2.72;100.00
19128;BME280;9696;53.686;10.094;2023-02-19T05:28:48;101442.31;;;2.73;100.00
19128;BME280;9696;53.686;10.094;2023-02-19T05:31:18;101451.31;;;2.65;100.00
19128;BME280;9696;53.686;10.094;2023-02-19T05:33:48;101450.38;;;2.67;100.00
19128;BME280;9696;53.686;10.094;2023-02-19T05:36:19;101452.94;;;2.67;100.00
19128;BME280;9696;53.686;10.094;2023-02-19T05:38:52;101451.44;;;2.62;100.00
19128;BME280;9696;53.686;10.094;2023-02-19T05:41:24;101458.69;;;2.54;100.00
19128;BME280;9696;53.686;10.094;2023-02-19T05:43:54;101469.97;;;2.53;100.00
19128;BME280;9696;53.686;10.094;2023-02-19T05:46:25;101469.97;;;2.53;100.00
19128;BME280;9696;53.686;10.094;2023-02-19T05:48:55;101472.81;;;2.47;100.00
19128;BME280;9696;53.686;10.094;2023-02-19T05:51:26;101470.53;;;2.39;100.00
19128;BME280;9696;53.686;10.094;2023-02-19T05:53:56;101476.59;;;2.38;100.00
19128;BME280;9696;53.686;10.094;2023-02-19T05:56:36;101482.03;;;2.32;100.00
19128;BME280;9696;53.686;10.094;2023-02-19T05:59:11;101481.88;;;2.36;100.00
19128;BME280;9696;53.686;10.094;2023-02-19T06:01:41;101492.22;;;2.36;100.00
19128;BME280;9696;53.686;10.094;2023-02-19T06:04:11;101499.06;;;2.37;100.00
19128;BME280;9696;53.686;10.094;2023-02-19T06:06:42;101495.03;;;2.30;100.00
19128;BME280;9696;53.686;10.094;2023-02-19T06:09:11;101507.81;;;2.35;100.00
19128;BME280;9696;53.686;10.094;2023-02-19T06:11:42;101520.03;;;2.31;100.00
19128;BME280;9696;53.686;10.094;2023-02-19T06:14:12;101521.22;;;2.23;100.00
19128;BME280;9696;53.686;10.094;2023-02-19T06:16:41;101527.19;;;2.25;100.00
19128;BME280;9696;53.686;10.094;2023-02-19T06:19:10;101531.34;;;2.29;100.00
19128;BME280;9696;53.686;10.094;2023-02-19T06:21:39;101534.88;;;2.26;100.00
19128;BME280;9696;53.686;10.094;2023-02-19T06:24:09;101535.06;;;2.22;100.00
19128;BME280;9696;53.686;10.094;2023-02-19T06:26:38;101534.03;;;2.26;100.00
19128;BME280;9696;53.686;10.094;2023-02-19T06:29:09;101541.16;;;2.21;100.00
19128;BME280;9696;53.686;10.094;2023-02-19T06:31:38;101548.66;;;2.27;100.00
19128;BME280;9696;53.686;10.094;2023-02-19T06:34:07;101556.13;;;2.34;100.00
19128;BME280;9696;53.686;10.094;2023-02-19T06:36:36;101561.41;;;2.33;100.00
19128;BME280;9696;53.686;10.094;2023-02-19T06:39:05;101568.47;;;2.28;100.00
19128;BME280;9696;53.686;10.094;2023-02-19T06:41:35;101572.63;;;2.32;100.00
19128;BME280;9696;53.686;10.094;2023-02-19T06:44:04;101581.06;;;2.37;100.00
19128;BME280;9696;53.686;10.094;2023-02-19T06:46:34;101586.53;;;2.29;100.00
19128;BME280;9696;53.686;10.094;2023-02-19T06:49:04;101594.38;;;2.28;100.00
19128;BME280;9696;53.686;10.094;2023-02-19T06:51:33;101591.47;;;2.35;100.00
19128;BME280;9696;53.686;10.094;2023-02-19T06:54:03;101605.31;;;2.34;100.00
19128;BME280;9696;53.686;10.094;2023-02-19T06:56:33;101607.47;;;2.45;100.00
19128;BME280;9696;53.686;10.094;2023-02-19T06:59:05;101601.41;;;2.46;100.00
19128;BME280;9696;53.686;10.094;2023-02-19T07:01:36;101602.25;;;2.47;100.00
19128;BME280;9696;53.686;10.094;2023-02-19T07:04:06;101613.50;;;2.46;100.00
19128;BME280;9696;53.686;10.094;2023-02-19T07:06:36;101612.44;;;2.51;100.00
19128;BME280;9696;53.686;10.094;2023-02-19T07:09:06;101610.41;;;2.59;100.00
19128;BME280;9696;53.686;10.094;2023-02-19T07:11:37;101622.06;;;2.69;100.00
19128;BME280;9696;53.686;10.094;2023-02-19T07:14:15;101636.75;;;2.69;100.00
19128;BME280;9696;53.686;10.094;2023-02-19T07:16:46;101635.94;;;2.68;100.00
19128;BME280;9696;53.686;10.094;2023-02-19T07:19:15;101641.75;;;2.73;100.00
19128;BME280;9696;53.686;10.094;2023-02-19T07:21:45;101651.94;;;2.78;100.00
19128;BME280;9696;53.686;10.094;2023-02-19T07:24:14;101662.19;;;2.81;100.00
19128;BME280;9696;53.686;10.094;2023-02-19T07:26:43;101658.50;;;2.87;100.00
19128;BME280;9696;53.686;10.094;2023-02-19T07:29:12;101664.06;;;2.99;100.00
19128;BME280;9696;53.686;10.094;2023-02-19T07:31:42;101666.34;;;3.07;100.00
19128;BME280;9696;53.686;10.094;2023-02-19T07:34:12;101668.50;;;3.17;100.00
19128;BME280;9696;53.686;10.094;2023-02-19T07:36:41;101667.53;;;3.20;100.00
19128;BME280;9696;53.686;10.094;2023-02-19T07:39:12;101675.06;;;3.26;100.00
19128;BME280;9696;53.686;10.094;2023-02-19T07:41:41;101681.75;;;3.31;100.00
19128;BME280;9696;53.686;10.094;2023-02-19T07:44:17;101687.34;;;3.21;100.00
19128;BME280;9696;53.686;10.094;2023-02-19T07:46:46;101694.56;;;3.35;100.00
19128;BME280;9696;53.686;10.094;2023-02-19T07:49:17;101688.88;;;3.47;100.00
19128;BME280;9696;53.686;10.094;2023-02-19T07:51:46;101687.69;;;3.33;100.00
19128;BME280;9696;53.686;10.094;2023-02-19T07:54:15;101694.25;;;3.42;100.00
19128;BME280;9696;53.686;10.094;2023-02-19T07:56:44;101698.19;;;3.30;100.00
19128;BME280;9696;53.686;10.094;2023-02-19T07:59:13;101702.88;;;3.43;100.00
19128;BME280;9696;53.686;10.094;2023-02-19T08:01:42;101708.44;;;3.33;100.00
19128;BME280;9696;53.686;10.094;2023-02-19T08:04:30;101715.00;;;3.42;100.00
19128;BME280;9696;53.686;10.094;2023-02-19T08:07:00;101723.09;;;3.35;100.00
19128;BME280;9696;53.686;10.094;2023-02-19T08:09:29;101735.78;;;3.41;100.00
19128;BME280;9696;53.686;10.094;2023-02-19T08:11:58;101728.31;;;3.55;100.00
19128;BME280;9696;53.686;10.094;2023-02-19T08:14:44;101725.50;;;3.79;100.00
19128;BME280;9696;53.686;10.094;2023-02-19T08:17:13;101724.69;;;3.79;100.00
19128;BME280;9696;53.686;10.094;2023-02-19T08:19:44;101730.66;;;3.81;100.00
19128;BME280;9696;53.686;10.094;2023-02-19T08:22:13;101730.19;;;3.71;100.00
19128;BME280;9696;53.686;10.094;2023-02-19T08:24:43;101732.41;;;3.80;100.00
19128;BME280;9696;53.686;10.094;2023-02-19T08:27:12;101721.16;;;4.00;100.00
19128;BME280;9696;53.686;10.094;2023-02-19T08:29:41;101723.03;;;4.17;100.00
19128;BME280;9696;53.686;10.094;2023-02-19T08:32:10;101724.28;;;4.08;100.00
19128;BME280;9696;53.686;10.094;2023-02-19T08:34:39;101731.31;;;4.25;100.00
19128;BME280;9696;53.686;10.094;2023-02-19T08:37:10;101732.34;;;4.41;100.00
19128;BME280;9696;53.686;10.094;2023-02-19T08:39:39;101737.69;;;4.38;100.00
19128;BME280;9696;53.686;10.094;2023-02-19T08:42:08;101739.94;;;4.46;100.00
19128;BME280;9696;53.686;10.094;2023-02-19T08:44:37;101748.22;;;4.54;100.00
19128;BME280;9696;53.686;10.094;2023-02-19T08:47:06;101763.97;;;4.69;100.00
19128;BME280;9696;53.686;10.094;2023-02-19T08:49:35;101761.72;;;4.62;100.00
19128;BME280;9696;53.686;10.094;2023-02-19T08:52:04;101764.22;;;4.82;100.00
19128;BME280;9696;53.686;10.094;2023-02-19T08:54:35;101763.75;;;4.74;100.00
19128;BME280;9696;53.686;10.094;2023-02-19T08:57:04;101779.91;;;4.81;100.00
19128;BME280;9696;53.686;10.094;2023-02-19T08:59:33;101789.31;;;4.83;100.00
19128;BME280;9696;53.686;10.094;2023-02-19T09:02:02;101789.78;;;4.91;100.00
19128;BME280;9696;53.686;10.094;2023-02-19T09:04:31;101794.00;;;4.75;100.00
19128;BME280;9696;53.686;10.094;2023-02-19T09:07:00;101808.63;;;4.96;100.00
19128;BME280;9696;53.686;10.094;2023-02-19T09:09:29;101811.84;;;5.20;100.00
19128;BME280;9696;53.686;10.094;2023-02-19T09:12:00;101809.53;;;5.33;100.00
19128;BME280;9696;53.686;10.094;2023-02-19T09:14:31;101808.56;;;5.52;100.00
19128;BME280;9696;53.686;10.094;2023-02-19T09:17:00;101824.69;;;5.42;100.00
19128;BME280;9696;53.686;10.094;2023-02-19T09:19:30;101829.81;;;5.79;100.00
19128;BME280;9696;53.686;10.094;2023-02-19T09:21:59;101831.22;;;5.86;100.00
19128;BME280;9696;53.686;10.094;2023-02-19T09:24:28;101835.28;;;6.43;100.00
19128;BME280;9696;53.686;10.094;2023-02-19T09:26:59;101834.47;;;6.58;100.00
19128;BME280;9696;53.686;10.094;2023-02-19T09:29:29;101833.88;;;6.36;100.00
19128;BME280;9696;53.686;10.094;2023-02-19T09:31:59;101824.69;;;6.46;100.00
19128;BME280;9696;53.686;10.094;2023-02-19T09:34:29;101826.44;;;6.79;100.00
19128;BME280;9696;53.686;10.094;2023-02-19T09:36:58;101828.72;;;6.85;100.00
19128;BME280;9696;53.686;10.094;2023-02-19T09:39:27;101836.34;;;6.72;100.00
19128;BME280;9696;53.686;10.094;2023-02-19T09:42:00;101846.16;;;7.16;100.00
19128;BME280;9696;53.686;10.094;2023-02-19T09:44:33;101853.81;;;6.87;100.00
19128;BME280;9696;53.686;10.094;2023-02-19T09:47:06;101857.66;;;6.47;100.00
19128;BME280;9696;53.686;10.094;2023-02-19T09:49:39;101854.94;;;7.15;100.00
19128;BME280;9696;53.686;10.094;2023-02-19T09:52:16;101849.63;;;7.16;100.00
19128;BME280;9696;53.686;10.094;2023-02-19T09:54:47;101839.81;;;6.88;100.00
19128;BME280;9696;53.686;10.094;2023-02-19T09:57:19;101858.22;;;6.70;100.00
19128;BME280;9696;53.686;10.094;2023-02-19T09:59:51;101867.88;;;7.00;100.00
19128;BME280;9696;53.686;10.094;2023-02-19T10:02:22;101883.25;;;7.38;100.00
19128;BME280;9696;53.686;10.094;2023-02-19T10:04:52;101883.84;;;6.94;100.00
19128;BME280;9696;53.686;10.094;2023-02-19T10:07:24;101889.53;;;6.85;100.00
19128;BME280;9696;53.686;10.094;2023-02-19T10:09:56;101898.56;;;6.95;100.00
19128;BME280;9696;53.686;10.094;2023-02-19T10:12:29;101906.25;;;6.98;100.00
19128;BME280;9696;53.686;10.094;2023-02-19T10:15:09;101914.91;;;6.99;100.00
19128;BME280;9696;53.686;10.094;2023-02-19T10:17:39;101914.66;;;6.53;100.00
19128;BME280;9696;53.686;10.094;2023-02-19T10:20:11;101920.00;;;6.85;100.00
19128;BME280;9696;53.686;10.094;2023-02-19T10:22:41;101923.16;;;6.74;100.00
19128;BME280;9696;53.686;10.094;2023-02-19T10:25:13;101941.13;;;6.96;100.00
19128;BME280;9696;53.686;10.094;2023-02-19T10:27:45;101935.66;;;7.18;100.00
19128;BME280;9696;53.686;10.094;2023-02-19T10:30:19;101939.47;;;7.75;100.00
19128;BME280;9696;53.686;10.094;2023-02-19T10:33:02;101930.41;;;7.50;100.00
19128;BME280;9696;53.686;10.094;2023-02-19T10:35:36;101929.44;;;7.36;100.00
19128;BME280;9696;53.686;10.094;2023-02-19T10:38:06;101932.97;;;7.35;100.00
19128;BME280;9696;53.686;10.094;2023-02-19T10:40:35;101928.72;;;7.49;100.00
19128;BME280;9696;53.686;10.094;2023-02-19T10:43:21;101933.56;;;7.40;100.00
19128;BME280;9696;53.686;10.094;2023-02-19T10:46:02;101945.84;;;7.22;100.00
19128;BME280;9696;53.686;10.094;2023-02-19T10:48:35;101940.25;;;7.45;100.00
19128;BME280;9696;53.686;10.094;2023-02-19T10:51:07;101930.88;;;7.88;100.00
19128;BME280;9696;53.686;10.094;2023-02-19T10:53:43;101937.81;;;8.19;100.00
19128;BME280;9696;53.686;10.094;2023-02-19T10:56:14;101945.06;;;8.30;100.00
19128;BME280;9696;53.686;10.094;2023-02-19T10:58:45;101955.81;;;8.10;100.00
19128;BME280;9696;53.686;10.094;2023-02-19T11:01:16;101964.28;;;8.44;100.00
19128;BME280;9696;53.686;10.094;2023-02-19T11:03:48;101970.44;;;8.28;100.00
19128;BME280;9696;53.686;10.094;2023-02-19T11:06:19;101977.50;;;8.41;100.00
19128;BME280;9696;53.686;10.094;2023-02-19T11:08:52;101974.25;;;8.06;100.00
19128;BME280;9696;53.686;10.094;2023-02-19T11:11:27;101977.69;;;8.38;100.00
19128;BME280;9696;53.686;10.094;2023-02-19T11:14:00;101976.97;;;8.36;100.00
19128;BME280;9696;53.686;10.094;2023-02-19T11:16:40;101973.41;;;8.67;100.00
19128;BME280;9696;53.686;10.094;2023-02-19T11:19:25;101976.38;;;8.16;100.00
19128;BME280;9696;53.686;10.094;2023-02-19T11:21:55;101979.75;;;8.33;100.00
19128;BME280;9696;53.686;10.094;2023-02-19T11:24:29;101970.66;;;8.55;100.00
19128;BME280;9696;53.686;10.094;2023-02-19T11:27:02;101976.88;;;8.68;100.00
19128;BME280;9696;53.686;10.094;2023-02-19T11:29:34;101980.72;;;8.46;100.00
19128;BME280;9696;53.686;10.094;2023-02-19T11:32:26;101971.31;;;8.58;100.00
19128;BME280;9696;53.686;10.094;2023-02-19T11:35:14;101971.34;;;9.16;100.00
19128;BME280;9696;53.686;10.094;2023-02-19T11:37:58;101982.19;;;8.66;100.00
19128;BME280;9696;53.686;10.094;2023-02-19T11:40:38;101979.47;;;8.06;100.00
19128;BME280;9696;53.686;10.094;2023-02-19T11:43:27;101989.00;;;8.39;100.00
19128;BME280;9696;53.686;10.094;2023-02-19T11:46:06;101991.56;;;8.55;100.00
19128;BME280;9696;53.686;10.094;2023-02-19T11:48:46;101993.00;;;8.60;100.00
19128;BME280;9696;53.686;10.094;2023-02-19T11:51:37;101992.44;;;8.55;100.00
19128;BME280;9696;53.686;10.094;2023-02-19T11:54:34;101995.53;;;9.06;100.00
19128;BME280;9696;53.686;10.094;2023-02-19T11:57:13;101989.16;;;9.10;100.00
19128;BME280;9696;53.686;10.094;2023-02-19T11:59:50;101991.69;;;9.25;100.00
19128;BME280;9696;53.686;10.094;2023-02-19T12:05:38;101982.31;;;9.78;100.00
19128;BME280;9696;53.686;10.094;2023-02-19T12:08:24;101980.47;;;9.37;100.00
19128;BME280;9696;53.686;10.094;2023-02-19T12:11:10;101984.13;;;8.92;100.00
19128;BME280;9696;53.686;10.094;2023-02-19T12:13:57;101988.25;;;9.25;100.00
19128;BME280;9696;53.686;10.094;2023-02-19T12:16:32;101989.03;;;8.83;100.00
19128;BME280;9696;53.686;10.094;2023-02-19T12:19:29;101982.34;;;9.21;100.00
19128;BME280;9696;53.686;10.094;2023-02-19T12:22:25;101998.06;;;9.35;100.00
19128;BME280;9696;53.686;10.094;2023-02-19T12:25:18;101999.94;;;9.19;100.00
19128;BME280;9696;53.686;10.094;2023-02-19T12:28:07;101999.28;;;9.58;100.00
19128;BME280;9696;53.686;10.094;2023-02-19T12:30:59;102006.25;;;9.72;100.00
19128;BME280;9696;53.686;10.094;2023-02-19T12:34:00;102010.59;;;9.30;100.00
19128;BME280;9696;53.686;10.094;2023-02-19T12:36:36;102008.78;;;8.88;100.00
19128;BME280;9696;53.686;10.094;2023-02-19T12:39:16;102014.53;;;8.79;100.00
19128;BME280;9696;53.686;10.094;2023-02-19T12:41:58;102007.81;;;8.89;100.00
19128;BME280;9696;53.686;10.094;2023-02-19T12:44:37;102009.94;;;9.27;100.00
19128;BME280;9696;53.686;10.094;2023-02-19T12:47:16;102003.31;;;9.35;100.00
19128;BME280;9696;53.686;10.094;2023-02-19T12:49:59;102007.44;;;9.39;100.00
19128;BME280;9696;53.686;10.094;2023-02-19T12:52:35;102001.72;;;10.02;100.00
19128;BME280;9696;53.686;10.094;2023-02-19T12:55:18;102006.75;;;9.78;100.00
19128;BME280;9696;53.686;10.094;2023-02-19T12:57:50;102003.09;;;8.96;100.00
19128;BME280;9696;53.686;10.094;2023-02-19T13:00:29;101989.38;;;9.35;100.00
19128;BME280;9696;53.686;10.094;2023-02-19T13:03:08;101988.06;;;9.42;100.00
19128;BME280;9696;53.686;10.094;2023-02-19T13:05:45;101978.63;;;9.39;100.00
19128;BME280;9696;53.686;10.094;2023-02-19T13:08:22;101985.50;;;8.98;100.00
19128;BME280;9696;53.686;10.094;2023-02-19T13:10:58;101990.13;;;8.65;100.00
19128;BME280;9696;53.686;10.094;2023-02-19T13:13:33;101976.00;;;8.53;100.00
19128;BME280;9696;53.686;10.094;2023-02-19T13:16:08;101971.19;;;8.45;100.00
19128;BME280;9696;53.686;10.094;2023-02-19T13:18:46;101968.13;;;9.25;100.00
19128;BME280;9696;53.686;10.094;2023-02-19T13:21:18;101972.53;;;9.11;100.00
19128;BME280;9696;53.686;10.094;2023-02-19T13:24:04;101970.97;;;9.77;100.00
19128;BME280;9696;53.686;10.094;2023-02-19T13:26:50;101967.75;;;10.15;100.00